DFOA weather

Dano Airport
Dano, Ioba, Burkina Faso

Public forecast

Using degrees Celsius for public forecast. Weather courtesy of forecast.io.

METAR (pilot weather report)

Report is more than 6 hours old.

Closest report is Gaoua Airport, 45.3 nm (83.9 km) S. Retrieved 2009/09/21 17:00 UTC (9 years ago):

DFOG 211700Z 18004KT 9999 FEW020 FEW040CB NW NE BKN260 30/23

TAF (pilot weather forecast)

Forecast is more than 12 hours old.

Closest forecast is Bobo Dioulasso Airport, 74.5 nm (137.9 km) W. Retrieved 2019/03/19 00:21 UTC (1 day ago):

TAF DFOO 192300Z 2000/2024 22008KT 8000 FEW020 TEMPO 2016/2024 4000 TSRA SCT020 FEW036CB